createdAt,value
2022-11-29T00:01:18.162Z,3.45
2022-11-29T00:03:45.754Z,4.60
2022-11-29T00:06:15.313Z,4.14
2022-11-29T00:08:43.582Z,4.91
2022-11-29T00:11:14.630Z,2.72
2022-11-29T00:13:42.002Z,2.00
2022-11-29T00:16:12.303Z,2.89
2022-11-29T00:18:39.783Z,3.70
2022-11-29T00:21:08.442Z,4.31
2022-11-29T00:23:36.611Z,5.18
2022-11-29T00:26:08.444Z,5.52
2022-11-29T00:28:36.879Z,5.81
2022-11-29T00:31:15.389Z,4.50
2022-11-29T00:33:43.201Z,4.50
2022-11-29T00:36:10.367Z,4.63
2022-11-29T00:38:37.984Z,5.10
2022-11-29T00:41:05.640Z,5.38
2022-11-29T00:43:33.482Z,6.40
2022-11-29T00:46:00.785Z,6.60
2022-11-29T00:48:28.411Z,6.69
2022-11-29T00:50:55.429Z,6.26
2022-11-29T00:53:23.368Z,6.01
2022-11-29T00:55:53.794Z,5.48
2022-11-29T00:58:21.900Z,5.51
2022-11-29T01:00:49.632Z,4.00
2022-11-29T01:03:17.491Z,5.55
2022-11-29T01:05:45.105Z,4.18
2022-11-29T01:08:13.862Z,2.74
2022-11-29T01:10:41.769Z,2.78
2022-11-29T01:13:10.793Z,2.21
2022-11-29T01:15:38.469Z,2.46
2022-11-29T01:18:06.152Z,4.19
2022-11-29T01:20:33.345Z,4.87
2022-11-29T01:23:00.928Z,5.24
2022-11-29T01:25:28.308Z,5.53
2022-11-29T01:27:55.803Z,5.82
2022-11-29T01:30:22.880Z,5.27
2022-11-29T01:32:50.328Z,5.35
2022-11-29T01:35:17.454Z,5.24
2022-11-29T01:37:44.947Z,5.40
2022-11-29T01:40:12.342Z,5.74
2022-11-29T01:42:39.846Z,5.98
2022-11-29T01:45:26.293Z,5.85
2022-11-29T01:47:58.202Z,5.48
2022-11-29T01:50:25.441Z,5.61
2022-11-29T01:52:53.141Z,4.06
2022-11-29T01:58:17.194Z,4.40
2022-11-29T02:00:45.326Z,4.76
2022-11-29T02:03:15.132Z,5.81
2022-11-29T02:05:47.662Z,5.50
2022-11-29T02:08:17.055Z,4.67
2022-11-29T02:10:52.131Z,4.41
2022-11-29T02:13:37.271Z,5.08
2022-11-29T02:16:25.376Z,4.90
2022-11-29T02:19:13.356Z,5.66
2022-11-29T02:21:52.329Z,6.14
2022-11-29T02:25:02.617Z,6.35
2022-11-29T02:28:10.179Z,6.58
2022-11-29T02:30:43.117Z,6.67
2022-11-29T02:33:22.679Z,6.72
2022-11-29T02:36:14.403Z,6.73
2022-11-29T02:38:41.851Z,6.72
2022-11-29T02:41:29.193Z,6.62
2022-11-29T02:44:27.723Z,6.71
2022-11-29T02:47:20.922Z,6.80
2022-11-29T02:50:17.358Z,6.83
2022-11-29T03:05:52.486Z,6.88
2022-11-29T03:07:38.715Z,5.94
2022-11-29T03:10:35.119Z,6.32
2022-11-29T03:13:05.995Z,6.49
2022-11-29T03:15:37.380Z,6.48
2022-11-29T03:18:34.279Z,5.66
2022-11-29T03:21:10.580Z,4.32
2022-11-29T03:24:01.511Z,5.16
2022-11-29T03:27:01.641Z,2.59
2022-11-29T03:29:51.599Z,1.05
2022-11-29T03:32:31.070Z,1.50
2022-11-29T03:35:18.035Z,0.81
2022-11-29T03:38:21.963Z,0.66
2022-11-29T03:41:10.397Z,1.97
2022-11-29T03:44:15.380Z,3.37
2022-11-29T03:47:08.008Z,4.07
2022-11-29T03:50:01.825Z,4.02
2022-11-29T03:52:38.402Z,4.49
2022-11-29T03:55:44.070Z,5.00
2022-11-29T03:58:36.770Z,3.16
2022-11-29T04:01:36.743Z,2.68
2022-11-29T04:04:40.792Z,0.63
2022-11-29T04:07:35.144Z,0.57
2022-11-29T04:10:20.663Z,1.38
2022-11-29T04:13:03.230Z,2.45
2022-11-29T04:15:53.451Z,1.82
2022-11-29T04:18:41.372Z,2.29
2022-11-29T04:21:11.097Z,2.26
2022-11-29T04:24:11.492Z,1.14
2022-11-29T04:27:17.888Z,2.61
2022-11-29T04:30:01.465Z,3.39
2022-11-29T04:33:19.250Z,3.33
2022-11-29T04:36:12.504Z,4.67
2022-11-29T04:39:07.274Z,2.84
2022-11-29T04:41:54.380Z,3.59
2022-11-29T04:44:38.569Z,4.11
2022-11-29T04:47:11.968Z,4.31
2022-11-29T04:50:14.052Z,1.91
2022-11-29T04:53:06.373Z,0.51
2022-11-29T04:55:58.270Z,2.97
2022-11-29T04:58:41.485Z,1.82
2022-11-29T05:01:50.507Z,0.50
2022-11-29T05:04:26.796Z,0.66
2022-11-29T05:07:08.563Z,1.32
2022-11-29T05:10:06.645Z,2.06
2022-11-29T05:13:07.406Z,1.41
2022-11-29T05:15:44.267Z,1.87
2022-11-29T05:18:36.679Z,3.51
2022-11-29T05:21:07.749Z,1.73
2022-11-29T05:24:05.616Z,2.86
2022-11-29T05:26:36.855Z,2.54
2022-11-29T05:29:17.104Z,3.72
2022-11-29T05:32:24.760Z,3.29
2022-11-29T05:35:08.254Z,1.80
2022-11-29T05:37:37.769Z,2.03
2022-11-29T05:40:44.640Z,2.59
2022-11-29T05:43:37.655Z,2.14
2022-11-29T05:46:16.156Z,2.99
2022-11-29T05:49:26.171Z,3.95
2022-11-29T05:52:06.219Z,1.56
2022-11-29T05:54:55.918Z,3.18
2022-11-29T05:58:02.412Z,2.29
2022-11-29T06:00:41.288Z,1.85
2022-11-29T06:03:49.120Z,2.44
2022-11-29T06:06:32.366Z,2.54
2022-11-29T06:09:12.956Z,2.08
2022-11-29T06:11:48.984Z,2.86
2022-11-29T06:14:37.988Z,3.60
2022-11-29T06:17:19.958Z,3.67
2022-11-29T06:20:36.294Z,3.57
2022-11-29T06:23:24.334Z,1.63
2022-11-29T06:26:19.494Z,2.52
2022-11-29T06:29:01.879Z,2.43
2022-11-29T06:31:34.809Z,2.73
2022-11-29T06:34:15.858Z,3.29
2022-11-29T06:37:04.767Z,4.28
2022-11-29T06:39:34.064Z,4.20
2022-11-29T06:42:01.059Z,3.68
2022-11-29T06:44:28.911Z,3.66
2022-11-29T06:47:18.192Z,3.00
2022-11-29T06:49:55.051Z,3.15
2022-11-29T06:52:22.323Z,2.46
2022-11-29T06:55:08.215Z,3.17
2022-11-29T06:57:57.022Z,3.40
2022-11-29T07:00:31.075Z,3.07
2022-11-29T07:03:44.118Z,4.22
2022-11-29T07:06:22.320Z,3.56
2022-11-29T07:08:56.397Z,4.00
2022-11-29T07:11:24.256Z,4.48
2022-11-29T07:13:51.763Z,3.63
2022-11-29T07:16:57.329Z,3.05
2022-11-29T07:19:24.801Z,3.83
2022-11-29T07:22:01.209Z,3.45
2022-11-29T07:25:03.881Z,4.18
2022-11-29T07:27:40.389Z,4.41
2022-11-29T07:30:14.654Z,4.00
2022-11-29T07:33:00.883Z,3.03
2022-11-29T07:35:31.250Z,3.58
2022-11-29T07:38:04.820Z,3.35
2022-11-29T07:40:39.792Z,3.40
2022-11-29T07:43:22.473Z,2.71
2022-11-29T07:45:51.479Z,3.15
2022-11-29T07:48:19.049Z,2.57
2022-11-29T07:50:46.987Z,3.13
2022-11-29T07:53:20.660Z,1.24
2022-11-29T07:55:48.893Z,2.30
2022-11-29T07:58:18.171Z,3.97
2022-11-29T08:00:45.882Z,3.97
2022-11-29T08:03:13.520Z,4.76
2022-11-29T08:05:41.086Z,4.94
2022-11-29T08:08:08.638Z,5.26
2022-11-29T08:10:35.837Z,3.75
2022-11-29T08:13:04.031Z,4.81
2022-11-29T08:15:31.895Z,5.16
2022-11-29T08:17:59.765Z,6.12
2022-11-29T08:20:26.855Z,5.06
2022-11-29T08:23:04.100Z,4.51
2022-11-29T08:25:31.408Z,4.80
2022-11-29T08:27:58.957Z,4.03
2022-11-29T08:30:27.233Z,4.76
2022-11-29T08:32:54.653Z,5.35
2022-11-29T08:35:23.505Z,5.37
2022-11-29T08:37:51.121Z,3.90
2022-11-29T08:40:18.549Z,4.64
2022-11-29T08:42:46.083Z,3.86
2022-11-29T08:45:13.564Z,5.60
2022-11-29T08:47:42.568Z,6.83
2022-11-29T08:50:14.744Z,4.58
2022-11-29T08:53:03.773Z,4.30
2022-11-29T08:55:36.365Z,4.06
2022-11-29T08:58:10.654Z,5.33
2022-11-29T09:00:39.374Z,3.67
2022-11-29T09:03:26.781Z,2.91
2022-11-29T09:05:54.705Z,4.02
2022-11-29T09:08:22.470Z,5.51
2022-11-29T09:10:50.079Z,5.57
2022-11-29T17:03:26.197Z,4.54
2022-11-29T17:06:30.764Z,3.43
2022-11-29T17:09:02.514Z,3.74
2022-11-29T17:11:52.498Z,4.77
2022-11-29T17:14:19.853Z,4.27
2022-11-29T17:16:50.111Z,4.96
2022-11-29T17:19:19.712Z,3.83
2022-11-29T17:21:48.019Z,4.27
2022-11-29T17:24:17.466Z,2.99
2022-11-29T17:26:46.025Z,4.68
2022-11-29T17:29:15.585Z,5.39
2022-11-29T17:31:47.945Z,3.55
2022-11-29T17:34:15.119Z,3.67
2022-11-29T17:36:43.102Z,4.28
2022-11-29T17:39:10.245Z,5.25
2022-11-29T17:41:38.371Z,5.56
2022-11-29T17:44:05.597Z,4.46
2022-11-29T17:46:36.654Z,5.06
2022-11-29T17:49:09.100Z,5.51
2022-11-29T17:51:51.854Z,4.35
2022-11-29T17:54:20.009Z,3.85
2022-11-29T17:56:48.017Z,3.82
2022-11-29T17:59:15.331Z,4.03
2022-11-29T18:01:43.004Z,4.94
2022-11-29T18:04:10.165Z,5.13
2022-11-29T18:06:40.107Z,4.89
2022-11-29T18:09:10.141Z,5.33
2022-11-29T18:11:47.664Z,5.15
2022-11-29T18:14:21.653Z,5.37
2022-11-29T18:16:49.472Z,6.11
2022-11-29T18:19:20.848Z,5.34
2022-11-29T18:21:49.278Z,4.08
2022-11-29T18:24:18.798Z,4.62
2022-11-29T18:26:47.067Z,5.55
2022-11-29T18:29:14.397Z,5.71
2022-11-29T18:31:44.514Z,4.55
2022-11-29T18:34:13.795Z,5.17
2022-11-29T18:36:43.320Z,5.42
2022-11-29T18:39:14.301Z,5.16
2022-11-29T18:41:44.123Z,5.65
2022-11-29T18:44:15.784Z,5.54
2022-11-29T18:46:44.928Z,5.14
2022-11-29T18:49:14.739Z,5.66
2022-11-29T18:51:45.256Z,6.32
2022-11-29T18:54:14.376Z,5.86
2022-11-29T18:56:42.586Z,4.48
2022-11-29T18:59:12.659Z,4.15
2022-11-29T19:01:42.995Z,4.48
2022-11-29T19:04:13.795Z,3.04
2022-11-29T19:06:42.942Z,4.32
2022-11-29T19:09:22.148Z,4.14
2022-11-29T19:11:50.320Z,4.27
2022-11-29T19:14:18.138Z,4.65
2022-11-29T19:16:47.697Z,4.78
2022-11-29T19:19:15.355Z,5.87
2022-11-29T19:21:42.840Z,6.39
2022-11-29T19:24:15.101Z,5.95
2022-11-29T19:26:45.405Z,5.62
2022-11-29T19:29:16.926Z,4.89
2022-11-29T19:31:46.385Z,4.02
2022-11-29T19:34:17.983Z,3.42
2022-11-29T19:36:46.683Z,4.45
2022-11-29T19:39:16.053Z,3.37
2022-11-29T19:41:46.147Z,3.49
2022-11-29T19:44:13.668Z,3.71
2022-11-29T19:46:44.409Z,4.48
2022-11-29T19:49:12.076Z,4.85
2022-11-29T19:51:40.013Z,5.86
2022-11-29T19:54:09.519Z,5.32
2022-11-29T19:56:39.033Z,6.11
2022-11-29T19:59:07.647Z,6.40
2022-11-29T20:01:40.812Z,6.43
2022-11-29T20:04:13.214Z,6.87
2022-11-29T20:06:43.844Z,5.06
2022-11-29T20:09:16.191Z,6.25
2022-11-29T20:11:45.054Z,6.22
2022-11-29T20:14:12.944Z,6.82
2022-11-29T20:16:41.653Z,6.30
2022-11-29T20:19:11.114Z,6.59
2022-11-29T20:21:43.756Z,5.94
2022-11-29T20:24:13.139Z,6.81
2022-11-29T20:26:47.687Z,4.64
2022-11-29T20:29:21.464Z,5.49
2022-11-29T20:31:54.215Z,5.14
2022-11-29T20:34:21.832Z,3.75
2022-11-29T20:36:57.035Z,5.68
2022-11-29T20:39:57.192Z,6.21
2022-11-29T20:43:04.292Z,3.47
2022-11-29T20:45:37.498Z,4.43
2022-11-29T20:48:19.959Z,5.02
2022-11-29T20:51:01.897Z,5.75
2022-11-29T20:53:36.200Z,6.44
2022-11-29T20:56:05.440Z,6.10
2022-11-29T20:58:33.181Z,7.17
2022-11-29T21:01:01.109Z,6.82
2022-11-29T21:03:30.253Z,6.58
2022-11-29T21:06:01.213Z,7.03
2022-11-29T21:08:29.705Z,6.02
2022-11-29T21:11:06.508Z,6.99
